sensor_id;sensor_type;location;lat;lon;timestamp;P1;durP1;ratioP1;P2;durP2;ratioP2
38865;SDS011;62686;48.984;8.394;2024-02-23T00:41:15;2.67;;;0.83;;
38865;SDS011;62686;48.984;8.394;2024-02-23T00:43:44;4.78;;;1.00;;
38865;SDS011;62686;48.984;8.394;2024-02-23T00:46:14;2.67;;;1.08;;
38865;SDS011;62686;48.984;8.394;2024-02-23T00:48:42;1.17;;;0.93;;
38865;SDS011;62686;48.984;8.394;2024-02-23T00:51:13;2.63;;;1.10;;
38865;SDS011;62686;48.984;8.394;2024-02-23T00:53:42;3.90;;;0.90;;
38865;SDS011;62686;48.984;8.394;2024-02-23T00:56:11;2.55;;;0.70;;
38865;SDS011;62686;48.984;8.394;2024-02-23T00:58:41;1.75;;;0.80;;
38865;SDS011;62686;48.984;8.394;2024-02-23T01:01:10;4.35;;;0.85;;
38865;SDS011;62686;48.984;8.394;2024-02-23T01:03:39;2.78;;;1.13;;
38865;SDS011;62686;48.984;8.394;2024-02-23T01:06:09;4.40;;;1.00;;
38865;SDS011;62686;48.984;8.394;2024-02-23T01:08:38;3.20;;;0.77;;
38865;SDS011;62686;48.984;8.394;2024-02-23T01:11:07;3.70;;;1.13;;
38865;SDS011;62686;48.984;8.394;2024-02-23T01:13:36;4.40;;;0.77;;
38865;SDS011;62686;48.984;8.394;2024-02-23T01:16:06;2.42;;;0.90;;
38865;SDS011;62686;48.984;8.394;2024-02-23T01:18:35;2.50;;;0.70;;
38865;SDS011;62686;48.984;8.394;2024-02-23T01:21:04;3.13;;;0.80;;
38865;SDS011;62686;48.984;8.394;2024-02-23T01:23:33;2.90;;;1.10;;
38865;SDS011;62686;48.984;8.394;2024-02-23T01:26:01;2.60;;;0.63;;
38865;SDS011;62686;48.984;8.394;2024-02-23T01:28:30;2.03;;;1.10;;
38865;SDS011;62686;48.984;8.394;2024-02-23T01:30:59;1.27;;;0.90;;
38865;SDS011;62686;48.984;8.394;2024-02-23T01:33:29;4.10;;;0.80;;
38865;SDS011;62686;48.984;8.394;2024-02-23T01:35:58;2.80;;;0.80;;
38865;SDS011;62686;48.984;8.394;2024-02-23T01:38:26;2.22;;;0.68;;
38865;SDS011;62686;48.984;8.394;2024-02-23T01:40:58;2.58;;;1.08;;
38865;SDS011;62686;48.984;8.394;2024-02-23T01:43:28;1.93;;;0.50;;
38865;SDS011;62686;48.984;8.394;2024-02-23T01:45:57;3.03;;;0.95;;
38865;SDS011;62686;48.984;8.394;2024-02-23T01:48:25;3.88;;;0.90;;
38865;SDS011;62686;48.984;8.394;2024-02-23T01:50:56;5.78;;;0.80;;
38865;SDS011;62686;48.984;8.394;2024-02-23T01:53:27;1.55;;;0.70;;
38865;SDS011;62686;48.984;8.394;2024-02-23T01:55:55;0.80;;;0.63;;
38865;SDS011;62686;48.984;8.394;2024-02-23T01:58:26;2.22;;;0.63;;
38865;SDS011;62686;48.984;8.394;2024-02-23T02:00:56;2.15;;;0.82;;
38865;SDS011;62686;48.984;8.394;2024-02-23T02:03:25;2.80;;;0.80;;
38865;SDS011;62686;48.984;8.394;2024-02-23T02:05:55;2.33;;;0.80;;
38865;SDS011;62686;48.984;8.394;2024-02-23T02:08:26;1.50;;;0.90;;
38865;SDS011;62686;48.984;8.394;2024-02-23T02:10:54;2.05;;;0.60;;
38865;SDS011;62686;48.984;8.394;2024-02-23T02:13:23;1.70;;;0.60;;
38865;SDS011;62686;48.984;8.394;2024-02-23T02:15:51;3.25;;;0.70;;
38865;SDS011;62686;48.984;8.394;2024-02-23T02:18:20;2.00;;;0.90;;
38865;SDS011;62686;48.984;8.394;2024-02-23T02:20:53;1.80;;;0.90;;
38865;SDS011;62686;48.984;8.394;2024-02-23T02:23:25;2.85;;;0.80;;
38865;SDS011;62686;48.984;8.394;2024-02-23T02:25:53;3.17;;;0.85;;
38865;SDS011;62686;48.984;8.394;2024-02-23T02:28:22;2.08;;;0.73;;
38865;SDS011;62686;48.984;8.394;2024-02-23T02:30:52;4.38;;;1.10;;
38865;SDS011;62686;48.984;8.394;2024-02-23T02:33:21;2.57;;;0.70;;
38865;SDS011;62686;48.984;8.394;2024-02-23T02:35:51;0.65;;;0.60;;
38865;SDS011;62686;48.984;8.394;2024-02-23T02:38:21;0.85;;;0.80;;
38865;SDS011;62686;48.984;8.394;2024-02-23T02:40:50;3.83;;;0.90;;
38865;SDS011;62686;48.984;8.394;2024-02-23T02:43:19;2.38;;;1.00;;
38865;SDS011;62686;48.984;8.394;2024-02-23T02:45:48;1.07;;;0.60;;
38865;SDS011;62686;48.984;8.394;2024-02-23T02:48:16;1.88;;;0.85;;
38865;SDS011;62686;48.984;8.394;2024-02-23T02:50:45;2.10;;;0.90;;
38865;SDS011;62686;48.984;8.394;2024-02-23T02:53:15;2.55;;;0.65;;
38865;SDS011;62686;48.984;8.394;2024-02-23T02:55:45;4.03;;;0.80;;
38865;SDS011;62686;48.984;8.394;2024-02-23T02:58:13;0.60;;;0.60;;
38865;SDS011;62686;48.984;8.394;2024-02-23T03:00:42;2.05;;;0.60;;
38865;SDS011;62686;48.984;8.394;2024-02-23T03:03:11;1.00;;;0.80;;
38865;SDS011;62686;48.984;8.394;2024-02-23T03:05:39;4.35;;;1.10;;
38865;SDS011;62686;48.984;8.394;2024-02-23T03:08:08;1.95;;;0.77;;
38865;SDS011;62686;48.984;8.394;2024-02-23T03:10:37;2.57;;;0.87;;
38865;SDS011;62686;48.984;8.394;2024-02-23T03:13:08;3.72;;;0.60;;
38865;SDS011;62686;48.984;8.394;2024-02-23T03:15:37;1.25;;;0.75;;
38865;SDS011;62686;48.984;8.394;2024-02-23T03:18:06;2.65;;;1.02;;
38865;SDS011;62686;48.984;8.394;2024-02-23T03:20:36;2.25;;;1.10;;
38865;SDS011;62686;48.984;8.394;2024-02-23T03:23:08;2.10;;;0.90;;
38865;SDS011;62686;48.984;8.394;2024-02-23T03:25:36;1.45;;;0.63;;
38865;SDS011;62686;48.984;8.394;2024-02-23T03:28:05;1.05;;;0.60;;
38865;SDS011;62686;48.984;8.394;2024-02-23T03:30:35;4.30;;;0.60;;
38865;SDS011;62686;48.984;8.394;2024-02-23T03:33:04;2.28;;;0.80;;
38865;SDS011;62686;48.984;8.394;2024-02-23T03:35:33;1.80;;;0.60;;
38865;SDS011;62686;48.984;8.394;2024-02-23T03:38:02;6.55;;;0.80;;
38865;SDS011;62686;48.984;8.394;2024-02-23T03:40:30;0.80;;;0.80;;
38865;SDS011;62686;48.984;8.394;2024-02-23T03:43:00;1.10;;;0.68;;
38865;SDS011;62686;48.984;8.394;2024-02-23T03:45:30;1.60;;;0.90;;
38865;SDS011;62686;48.984;8.394;2024-02-23T03:47:59;1.50;;;0.67;;
38865;SDS011;62686;48.984;8.394;2024-02-23T03:50:30;1.37;;;0.70;;
38865;SDS011;62686;48.984;8.394;2024-02-23T03:52:59;0.95;;;0.80;;
38865;SDS011;62686;48.984;8.394;2024-02-23T03:55:27;2.20;;;0.60;;
38865;SDS011;62686;48.984;8.394;2024-02-23T03:57:56;1.30;;;0.68;;
38865;SDS011;62686;48.984;8.394;2024-02-23T04:00:24;2.23;;;0.70;;
38865;SDS011;62686;48.984;8.394;2024-02-23T04:02:54;1.20;;;0.75;;
38865;SDS011;62686;48.984;8.394;2024-02-23T04:05:23;2.00;;;1.23;;
38865;SDS011;62686;48.984;8.394;2024-02-23T04:46:10;0.93;;;0.75;;
38865;SDS011;62686;48.984;8.394;2024-02-23T04:48:39;2.35;;;0.95;;
38865;SDS011;62686;48.984;8.394;2024-02-23T04:51:08;1.90;;;0.85;;
38865;SDS011;62686;48.984;8.394;2024-02-23T04:53:37;1.73;;;0.77;;
38865;SDS011;62686;48.984;8.394;2024-02-23T04:56:06;1.63;;;0.75;;
38865;SDS011;62686;48.984;8.394;2024-02-23T04:58:34;3.40;;;0.77;;
38865;SDS011;62686;48.984;8.394;2024-02-23T05:01:04;2.30;;;0.82;;
38865;SDS011;62686;48.984;8.394;2024-02-23T05:03:34;2.90;;;0.90;;
38865;SDS011;62686;48.984;8.394;2024-02-23T05:06:03;2.60;;;0.93;;
38865;SDS011;62686;48.984;8.394;2024-02-23T05:08:32;2.38;;;0.75;;
38865;SDS011;62686;48.984;8.394;2024-02-23T05:11:00;2.17;;;0.90;;
38865;SDS011;62686;48.984;8.394;2024-02-23T05:13:29;6.13;;;0.90;;
38865;SDS011;62686;48.984;8.394;2024-02-23T05:15:57;2.03;;;0.70;;
38865;SDS011;62686;48.984;8.394;2024-02-23T05:18:26;2.80;;;1.03;;
38865;SDS011;62686;48.984;8.394;2024-02-23T05:20:56;2.30;;;0.80;;
38865;SDS011;62686;48.984;8.394;2024-02-23T05:23:25;2.67;;;1.10;;
38865;SDS011;62686;48.984;8.394;2024-02-23T05:25:53;2.35;;;0.80;;
38865;SDS011;62686;48.984;8.394;2024-02-23T05:28:22;3.95;;;1.27;;
38865;SDS011;62686;48.984;8.394;2024-02-23T05:30:51;1.03;;;0.60;;
38865;SDS011;62686;48.984;8.394;2024-02-23T05:33:24;1.65;;;0.85;;
38865;SDS011;62686;48.984;8.394;2024-02-23T05:35:52;0.60;;;0.60;;
38865;SDS011;62686;48.984;8.394;2024-02-23T05:38:22;2.20;;;0.90;;
38865;SDS011;62686;48.984;8.394;2024-02-23T05:40:51;4.18;;;0.50;;
38865;SDS011;62686;48.984;8.394;2024-02-23T05:43:19;1.87;;;0.60;;
38865;SDS011;62686;48.984;8.394;2024-02-23T05:45:49;0.68;;;0.65;;
38865;SDS011;62686;48.984;8.394;2024-02-23T05:48:17;2.17;;;0.90;;
38865;SDS011;62686;48.984;8.394;2024-02-23T05:50:46;1.35;;;0.70;;
38865;SDS011;62686;48.984;8.394;2024-02-23T05:53:14;2.35;;;0.70;;
38865;SDS011;62686;48.984;8.394;2024-02-23T06:30:48;3.88;;;0.95;;
38865;SDS011;62686;48.984;8.394;2024-02-23T06:33:16;1.15;;;0.85;;
38865;SDS011;62686;48.984;8.394;2024-02-23T06:35:45;2.33;;;0.80;;
38865;SDS011;62686;48.984;8.394;2024-02-23T06:38:14;1.02;;;0.60;;
38865;SDS011;62686;48.984;8.394;2024-02-23T06:40:43;3.72;;;0.85;;
38865;SDS011;62686;48.984;8.394;2024-02-23T06:43:11;2.95;;;0.50;;
38865;SDS011;62686;48.984;8.394;2024-02-23T06:45:40;1.77;;;0.52;;
38865;SDS011;62686;48.984;8.394;2024-02-23T06:48:10;3.70;;;0.60;;
38865;SDS011;62686;48.984;8.394;2024-02-23T06:50:41;1.35;;;0.75;;
38865;SDS011;62686;48.984;8.394;2024-02-23T06:53:09;1.88;;;0.70;;
38865;SDS011;62686;48.984;8.394;2024-02-23T06:55:38;4.05;;;1.02;;
38865;SDS011;62686;48.984;8.394;2024-02-23T06:58:06;2.30;;;0.60;;
38865;SDS011;62686;48.984;8.394;2024-02-23T07:00:37;1.07;;;0.70;;
38865;SDS011;62686;48.984;8.394;2024-02-23T07:03:05;2.20;;;0.57;;
38865;SDS011;62686;48.984;8.394;2024-02-23T07:05:36;3.08;;;0.82;;
38865;SDS011;62686;48.984;8.394;2024-02-23T07:08:05;2.42;;;0.50;;
38865;SDS011;62686;48.984;8.394;2024-02-23T07:10:34;1.80;;;0.98;;
38865;SDS011;62686;48.984;8.394;2024-02-23T07:13:03;3.40;;;0.73;;
38865;SDS011;62686;48.984;8.394;2024-02-23T07:15:34;3.30;;;0.70;;
38865;SDS011;62686;48.984;8.394;2024-02-23T07:18:04;1.10;;;0.70;;
38865;SDS011;62686;48.984;8.394;2024-02-23T07:20:36;3.10;;;0.95;;
38865;SDS011;62686;48.984;8.394;2024-02-23T07:23:06;2.95;;;0.77;;
38865;SDS011;62686;48.984;8.394;2024-02-23T07:25:35;2.83;;;0.60;;
38865;SDS011;62686;48.984;8.394;2024-02-23T07:28:04;1.35;;;0.60;;
38865;SDS011;62686;48.984;8.394;2024-02-23T07:30:33;2.00;;;1.20;;
38865;SDS011;62686;48.984;8.394;2024-02-23T07:33:02;3.97;;;1.48;;
38865;SDS011;62686;48.984;8.394;2024-02-23T07:35:31;3.17;;;1.23;;
38865;SDS011;62686;48.984;8.394;2024-02-23T08:48:19;2.40;;;1.10;;
38865;SDS011;62686;48.984;8.394;2024-02-23T08:50:48;3.17;;;0.93;;
38865;SDS011;62686;48.984;8.394;2024-02-23T08:53:16;2.17;;;1.30;;
38865;SDS011;62686;48.984;8.394;2024-02-23T08:55:45;2.63;;;0.82;;
38865;SDS011;62686;48.984;8.394;2024-02-23T08:58:14;3.15;;;1.33;;
38865;SDS011;62686;48.984;8.394;2024-02-23T09:00:42;3.83;;;1.00;;
38865;SDS011;62686;48.984;8.394;2024-02-23T09:03:11;2.60;;;1.00;;
38865;SDS011;62686;48.984;8.394;2024-02-23T09:05:41;5.45;;;1.13;;
38865;SDS011;62686;48.984;8.394;2024-02-23T09:08:10;2.50;;;0.82;;
38865;SDS011;62686;48.984;8.394;2024-02-23T09:10:38;2.60;;;0.85;;
38865;SDS011;62686;48.984;8.394;2024-02-23T09:13:07;2.33;;;1.30;;
38865;SDS011;62686;48.984;8.394;2024-02-23T09:15:35;5.00;;;1.27;;
38865;SDS011;62686;48.984;8.394;2024-02-23T09:18:04;4.50;;;1.17;;
38865;SDS011;62686;48.984;8.394;2024-02-23T09:20:33;1.92;;;0.80;;
38865;SDS011;62686;48.984;8.394;2024-02-23T09:23:03;2.10;;;0.90;;
38865;SDS011;62686;48.984;8.394;2024-02-23T09:25:31;3.83;;;1.20;;
38865;SDS011;62686;48.984;8.394;2024-02-23T09:28:00;1.27;;;0.77;;
38865;SDS011;62686;48.984;8.394;2024-02-23T09:30:29;4.28;;;0.88;;
38865;SDS011;62686;48.984;8.394;2024-02-23T09:32:57;2.88;;;0.75;;
38865;SDS011;62686;48.984;8.394;2024-02-23T09:35:27;3.55;;;1.27;;
38865;SDS011;62686;48.984;8.394;2024-02-23T09:37:55;2.77;;;1.30;;
38865;SDS011;62686;48.984;8.394;2024-02-23T09:40:25;3.35;;;1.02;;
38865;SDS011;62686;48.984;8.394;2024-02-23T09:42:55;3.22;;;1.50;;
38865;SDS011;62686;48.984;8.394;2024-02-23T09:45:25;5.40;;;1.33;;
38865;SDS011;62686;48.984;8.394;2024-02-23T09:47:54;3.38;;;1.05;;
38865;SDS011;62686;48.984;8.394;2024-02-23T09:50:25;3.90;;;0.80;;
38865;SDS011;62686;48.984;8.394;2024-02-23T09:52:55;5.32;;;0.90;;
38865;SDS011;62686;48.984;8.394;2024-02-23T09:55:27;2.40;;;1.02;;
38865;SDS011;62686;48.984;8.394;2024-02-23T09:57:57;4.40;;;1.35;;
38865;SDS011;62686;48.984;8.394;2024-02-23T10:00:26;4.07;;;1.13;;
38865;SDS011;62686;48.984;8.394;2024-02-23T10:02:56;2.20;;;1.00;;
38865;SDS011;62686;48.984;8.394;2024-02-23T10:05:29;2.33;;;0.98;;
38865;SDS011;62686;48.984;8.394;2024-02-23T10:07:59;3.78;;;1.55;;
38865;SDS011;62686;48.984;8.394;2024-02-23T10:10:32;4.35;;;1.13;;
38865;SDS011;62686;48.984;8.394;2024-02-23T10:13:02;2.83;;;1.02;;
38865;SDS011;62686;48.984;8.394;2024-02-23T10:15:31;3.67;;;0.87;;
38865;SDS011;62686;48.984;8.394;2024-02-23T10:18:00;1.73;;;0.93;;
38865;SDS011;62686;48.984;8.394;2024-02-23T10:20:29;2.97;;;1.30;;
38865;SDS011;62686;48.984;8.394;2024-02-23T10:22:57;4.25;;;1.27;;
38865;SDS011;62686;48.984;8.394;2024-02-23T10:25:26;3.53;;;0.80;;
38865;SDS011;62686;48.984;8.394;2024-02-23T10:27:57;3.60;;;1.10;;
38865;SDS011;62686;48.984;8.394;2024-02-23T10:30:26;4.25;;;1.25;;
38865;SDS011;62686;48.984;8.394;2024-02-23T10:32:55;2.50;;;1.40;;
38865;SDS011;62686;48.984;8.394;2024-02-23T10:35:26;3.75;;;1.20;;
38865;SDS011;62686;48.984;8.394;2024-02-23T10:37:54;3.17;;;0.95;;
38865;SDS011;62686;48.984;8.394;2024-02-23T10:40:24;2.00;;;0.83;;
38865;SDS011;62686;48.984;8.394;2024-02-23T10:42:59;2.08;;;1.13;;
38865;SDS011;62686;48.984;8.394;2024-02-23T10:45:30;4.85;;;1.40;;
38865;SDS011;62686;48.984;8.394;2024-02-23T10:47:59;2.97;;;0.95;;
38865;SDS011;62686;48.984;8.394;2024-02-23T10:50:28;3.70;;;1.30;;
38865;SDS011;62686;48.984;8.394;2024-02-23T10:52:59;1.90;;;0.90;;
38865;SDS011;62686;48.984;8.394;2024-02-23T10:55:29;2.78;;;1.05;;
38865;SDS011;62686;48.984;8.394;2024-02-23T10:58:00;3.83;;;1.25;;
38865;SDS011;62686;48.984;8.394;2024-02-23T11:00:30;5.35;;;1.88;;
38865;SDS011;62686;48.984;8.394;2024-02-23T11:02:59;2.65;;;1.27;;
38865;SDS011;62686;48.984;8.394;2024-02-23T11:05:30;2.43;;;1.50;;
38865;SDS011;62686;48.984;8.394;2024-02-23T11:07:59;3.03;;;1.00;;
38865;SDS011;62686;48.984;8.394;2024-02-23T11:10:27;3.67;;;1.50;;
38865;SDS011;62686;48.984;8.394;2024-02-23T11:13:00;5.45;;;1.52;;
38865;SDS011;62686;48.984;8.394;2024-02-23T11:15:30;3.38;;;1.30;;
38865;SDS011;62686;48.984;8.394;2024-02-23T11:18:20;2.73;;;1.13;;
38865;SDS011;62686;48.984;8.394;2024-02-23T11:20:53;3.83;;;1.45;;
38865;SDS011;62686;48.984;8.394;2024-02-23T11:23:23;2.88;;;1.40;;
38865;SDS011;62686;48.984;8.394;2024-02-23T11:25:59;4.65;;;1.20;;
38865;SDS011;62686;48.984;8.394;2024-02-23T11:28:34;2.75;;;1.40;;
38865;SDS011;62686;48.984;8.394;2024-02-23T11:31:11;4.13;;;1.40;;
38865;SDS011;62686;48.984;8.394;2024-02-23T11:33:47;3.53;;;1.15;;
38865;SDS011;62686;48.984;8.394;2024-02-23T11:36:23;3.35;;;1.63;;
38865;SDS011;62686;48.984;8.394;2024-02-23T11:38:52;3.03;;;1.40;;
38865;SDS011;62686;48.984;8.394;2024-02-23T11:41:22;2.10;;;1.40;;
38865;SDS011;62686;48.984;8.394;2024-02-23T11:43:53;2.80;;;1.13;;
38865;SDS011;62686;48.984;8.394;2024-02-23T11:46:22;3.58;;;1.15;;
38865;SDS011;62686;48.984;8.394;2024-02-23T11:48:51;4.30;;;1.63;;
38865;SDS011;62686;48.984;8.394;2024-02-23T11:51:21;4.45;;;0.95;;
38865;SDS011;62686;48.984;8.394;2024-02-23T11:53:53;2.72;;;1.38;;
38865;SDS011;62686;48.984;8.394;2024-02-23T11:56:25;2.97;;;1.37;;
38865;SDS011;62686;48.984;8.394;2024-02-23T11:58:56;3.78;;;0.95;;
38865;SDS011;62686;48.984;8.394;2024-02-23T12:01:25;3.38;;;1.58;;
38865;SDS011;62686;48.984;8.394;2024-02-23T12:03:56;4.55;;;0.90;;
38865;SDS011;62686;48.984;8.394;2024-02-23T12:06:25;2.22;;;1.02;;
38865;SDS011;62686;48.984;8.394;2024-02-23T12:08:56;3.93;;;1.00;;
38865;SDS011;62686;48.984;8.394;2024-02-23T12:11:25;1.63;;;0.88;;
38865;SDS011;62686;48.984;8.394;2024-02-23T12:13:56;5.32;;;1.52;;
38865;SDS011;62686;48.984;8.394;2024-02-23T12:16:26;2.85;;;1.10;;
38865;SDS011;62686;48.984;8.394;2024-02-23T15:33:18;2.38;;;1.52;;
38865;SDS011;62686;48.984;8.394;2024-02-23T15:35:49;2.85;;;1.15;;
38865;SDS011;62686;48.984;8.394;2024-02-23T16:05:13;1.65;;;1.08;;
38865;SDS011;62686;48.984;8.394;2024-02-23T16:07:42;1.80;;;1.33;;
38865;SDS011;62686;48.984;8.394;2024-02-23T17:10:39;5.60;;;2.75;;
38865;SDS011;62686;48.984;8.394;2024-02-23T17:13:07;7.93;;;4.60;;
38865;SDS011;62686;48.984;8.394;2024-02-23T17:15:36;7.07;;;4.10;;
38865;SDS011;62686;48.984;8.394;2024-02-23T17:18:05;5.10;;;3.10;;
38865;SDS011;62686;48.984;8.394;2024-02-23T17:20:34;4.57;;;2.50;;
38865;SDS011;62686;48.984;8.394;2024-02-23T17:23:03;4.03;;;2.08;;
38865;SDS011;62686;48.984;8.394;2024-02-23T17:25:32;6.25;;;2.33;;
38865;SDS011;62686;48.984;8.394;2024-02-23T17:28:01;5.22;;;1.95;;
38865;SDS011;62686;48.984;8.394;2024-02-23T17:30:31;3.00;;;2.10;;
38865;SDS011;62686;48.984;8.394;2024-02-23T17:32:59;5.30;;;2.70;;
38865;SDS011;62686;48.984;8.394;2024-02-23T17:35:27;4.53;;;3.20;;
38865;SDS011;62686;48.984;8.394;2024-02-23T17:37:56;6.30;;;3.40;;
38865;SDS011;62686;48.984;8.394;2024-02-23T17:40:24;6.25;;;2.50;;
38865;SDS011;62686;48.984;8.394;2024-02-23T17:42:53;3.67;;;2.10;;
38865;SDS011;62686;48.984;8.394;2024-02-23T17:45:23;5.72;;;3.20;;
38865;SDS011;62686;48.984;8.394;2024-02-23T17:47:51;4.78;;;2.70;;
38865;SDS011;62686;48.984;8.394;2024-02-23T17:50:20;5.25;;;2.97;;
38865;SDS011;62686;48.984;8.394;2024-02-23T17:52:49;5.40;;;3.00;;
38865;SDS011;62686;48.984;8.394;2024-02-23T17:55:17;3.20;;;2.20;;
38865;SDS011;62686;48.984;8.394;2024-02-23T17:57:46;4.38;;;2.08;;
38865;SDS011;62686;48.984;8.394;2024-02-23T18:00:15;6.65;;;2.67;;
38865;SDS011;62686;48.984;8.394;2024-02-23T18:02:46;10.90;;;6.13;;
38865;SDS011;62686;48.984;8.394;2024-02-23T18:05:14;15.90;;;9.38;;
38865;SDS011;62686;48.984;8.394;2024-02-23T18:07:43;9.13;;;4.50;;
38865;SDS011;62686;48.984;8.394;2024-02-23T18:10:11;6.25;;;4.53;;
38865;SDS011;62686;48.984;8.394;2024-02-23T18:12:40;9.90;;;5.20;;
38865;SDS011;62686;48.984;8.394;2024-02-23T18:15:08;10.38;;;5.30;;
38865;SDS011;62686;48.984;8.394;2024-02-23T18:17:37;12.18;;;5.78;;
38865;SDS011;62686;48.984;8.394;2024-02-23T19:29:57;4.27;;;1.60;;
38865;SDS011;62686;48.984;8.394;2024-02-23T19:32:29;4.28;;;1.65;;
38865;SDS011;62686;48.984;8.394;2024-02-23T19:34:58;2.92;;;1.40;;
38865;SDS011;62686;48.984;8.394;2024-02-23T19:37:26;3.20;;;1.45;;
38865;SDS011;62686;48.984;8.394;2024-02-23T19:39:54;3.00;;;1.15;;
38865;SDS011;62686;48.984;8.394;2024-02-23T19:42:23;3.73;;;1.77;;
38865;SDS011;62686;48.984;8.394;2024-02-23T19:44:52;4.05;;;1.52;;
38865;SDS011;62686;48.984;8.394;2024-02-23T19:47:22;4.28;;;2.17;;
38865;SDS011;62686;48.984;8.394;2024-02-23T19:49:51;3.92;;;1.80;;
38865;SDS011;62686;48.984;8.394;2024-02-23T19:52:19;3.90;;;2.05;;
38865;SDS011;62686;48.984;8.394;2024-02-23T19:54:48;4.07;;;1.70;;
38865;SDS011;62686;48.984;8.394;2024-02-23T19:57:17;2.28;;;1.02;;
38865;SDS011;62686;48.984;8.394;2024-02-23T19:59:45;4.38;;;1.90;;
38865;SDS011;62686;48.984;8.394;2024-02-23T20:02:14;5.75;;;2.15;;
38865;SDS011;62686;48.984;8.394;2024-02-23T20:04:44;3.97;;;1.77;;
38865;SDS011;62686;48.984;8.394;2024-02-23T20:07:18;5.83;;;1.50;;
38865;SDS011;62686;48.984;8.394;2024-02-23T20:09:47;3.03;;;1.50;;
38865;SDS011;62686;48.984;8.394;2024-02-23T20:12:16;9.15;;;4.15;;
38865;SDS011;62686;48.984;8.394;2024-02-23T20:14:46;8.82;;;4.43;;
38865;SDS011;62686;48.984;8.394;2024-02-23T20:17:15;8.98;;;4.00;;
38865;SDS011;62686;48.984;8.394;2024-02-23T20:19:45;8.70;;;3.77;;
38865;SDS011;62686;48.984;8.394;2024-02-23T20:22:14;6.55;;;2.20;;
38865;SDS011;62686;48.984;8.394;2024-02-23T20:24:45;4.88;;;2.15;;
38865;SDS011;62686;48.984;8.394;2024-02-23T20:27:15;3.63;;;1.83;;
38865;SDS011;62686;48.984;8.394;2024-02-23T20:29:43;4.65;;;1.90;;
38865;SDS011;62686;48.984;8.394;2024-02-23T20:32:12;3.47;;;1.97;;
38865;SDS011;62686;48.984;8.394;2024-02-23T20:34:41;7.25;;;2.83;;
38865;SDS011;62686;48.984;8.394;2024-02-23T20:37:11;6.78;;;2.80;;
38865;SDS011;62686;48.984;8.394;2024-02-23T20:39:40;5.13;;;2.30;;
38865;SDS011;62686;48.984;8.394;2024-02-23T20:42:08;3.33;;;1.95;;
38865;SDS011;62686;48.984;8.394;2024-02-23T20:44:37;4.83;;;2.00;;
38865;SDS011;62686;48.984;8.394;2024-02-23T20:47:06;3.00;;;1.50;;
38865;SDS011;62686;48.984;8.394;2024-02-23T20:49:35;5.90;;;2.10;;
38865;SDS011;62686;48.984;8.394;2024-02-23T20:52:04;2.85;;;1.70;;
38865;SDS011;62686;48.984;8.394;2024-02-23T20:54:35;3.17;;;1.92;;
38865;SDS011;62686;48.984;8.394;2024-02-23T20:57:05;3.20;;;1.83;;
38865;SDS011;62686;48.984;8.394;2024-02-23T20:59:34;3.58;;;1.98;;
38865;SDS011;62686;48.984;8.394;2024-02-23T21:02:03;5.82;;;2.17;;
38865;SDS011;62686;48.984;8.394;2024-02-23T21:04:32;3.80;;;1.58;;
38865;SDS011;62686;48.984;8.394;2024-02-23T21:07:01;4.30;;;1.90;;
38865;SDS011;62686;48.984;8.394;2024-02-23T21:09:31;4.63;;;1.70;;
38865;SDS011;62686;48.984;8.394;2024-02-23T21:12:01;3.67;;;1.83;;
38865;SDS011;62686;48.984;8.394;2024-02-23T21:14:30;5.13;;;2.40;;
38865;SDS011;62686;48.984;8.394;2024-02-23T21:16:59;6.40;;;3.20;;
38865;SDS011;62686;48.984;8.394;2024-02-23T21:19:28;4.35;;;2.60;;
38865;SDS011;62686;48.984;8.394;2024-02-23T21:21:56;3.87;;;2.23;;
38865;SDS011;62686;48.984;8.394;2024-02-23T21:24:25;7.53;;;3.45;;
38865;SDS011;62686;48.984;8.394;2024-02-23T21:26:54;8.10;;;3.72;;
38865;SDS011;62686;48.984;8.394;2024-02-23T21:29:24;5.50;;;3.05;;
38865;SDS011;62686;48.984;8.394;2024-02-23T21:31:53;6.40;;;3.30;;
38865;SDS011;62686;48.984;8.394;2024-02-23T21:34:22;8.53;;;3.43;;
38865;SDS011;62686;48.984;8.394;2024-02-23T21:36:50;5.68;;;3.25;;
38865;SDS011;62686;48.984;8.394;2024-02-23T21:39:19;5.43;;;2.90;;
38865;SDS011;62686;48.984;8.394;2024-02-23T21:41:47;8.73;;;3.13;;
38865;SDS011;62686;48.984;8.394;2024-02-23T21:44:16;7.97;;;3.50;;
38865;SDS011;62686;48.984;8.394;2024-02-23T21:46:46;8.30;;;2.90;;
38865;SDS011;62686;48.984;8.394;2024-02-23T21:49:14;6.15;;;2.95;;
38865;SDS011;62686;48.984;8.394;2024-02-23T21:51:43;7.22;;;3.15;;
38865;SDS011;62686;48.984;8.394;2024-02-23T21:54:11;9.00;;;3.10;;
38865;SDS011;62686;48.984;8.394;2024-02-23T21:56:40;7.25;;;3.33;;
38865;SDS011;62686;48.984;8.394;2024-02-23T21:59:09;6.77;;;3.40;;
38865;SDS011;62686;48.984;8.394;2024-02-23T22:01:37;4.72;;;2.50;;
38865;SDS011;62686;48.984;8.394;2024-02-23T22:04:07;7.07;;;2.95;;
38865;SDS011;62686;48.984;8.394;2024-02-23T22:06:36;5.22;;;1.85;;
38865;SDS011;62686;48.984;8.394;2024-02-23T22:09:04;4.63;;;2.70;;
38865;SDS011;62686;48.984;8.394;2024-02-23T22:11:33;4.53;;;2.23;;
38865;SDS011;62686;48.984;8.394;2024-02-23T22:14:02;3.33;;;2.13;;
38865;SDS011;62686;48.984;8.394;2024-02-23T22:16:30;2.67;;;1.48;;
38865;SDS011;62686;48.984;8.394;2024-02-23T22:18:59;3.22;;;1.42;;
38865;SDS011;62686;48.984;8.394;2024-02-23T22:21:29;4.50;;;1.33;;
38865;SDS011;62686;48.984;8.394;2024-02-23T22:23:57;5.68;;;1.38;;
38865;SDS011;62686;48.984;8.394;2024-02-23T22:26:26;4.85;;;1.30;;
38865;SDS011;62686;48.984;8.394;2024-02-23T22:28:55;2.42;;;1.08;;
38865;SDS011;62686;48.984;8.394;2024-02-23T22:31:24;3.70;;;0.95;;
38865;SDS011;62686;48.984;8.394;2024-02-23T22:33:52;1.30;;;1.20;;
38865;SDS011;62686;48.984;8.394;2024-02-23T22:36:22;2.45;;;1.25;;
38865;SDS011;62686;48.984;8.394;2024-02-23T22:38:51;5.65;;;1.30;;
38865;SDS011;62686;48.984;8.394;2024-02-23T22:41:21;4.10;;;1.52;;
38865;SDS011;62686;48.984;8.394;2024-02-23T22:43:49;4.95;;;1.70;;
38865;SDS011;62686;48.984;8.394;2024-02-23T22:46:18;3.67;;;1.90;;
38865;SDS011;62686;48.984;8.394;2024-02-23T22:48:46;5.43;;;2.20;;
38865;SDS011;62686;48.984;8.394;2024-02-23T22:51:15;3.60;;;1.42;;
38865;SDS011;62686;48.984;8.394;2024-02-23T22:53:44;2.63;;;1.55;;
38865;SDS011;62686;48.984;8.394;2024-02-23T22:56:14;2.80;;;1.35;;
